sensor_id;sensor_type;location;lat;lon;timestamp;pressure;altitude;pressure_sealevel;temperature;humidity
39699;BME280;25372;50.582;12.250;2022-10-28T00:00:08;100583.22;;;9.02;100.00
39699;BME280;25372;50.582;12.250;2022-10-28T00:10:31;100594.91;;;8.92;100.00
39699;BME280;25372;50.582;12.250;2022-10-28T00:20:58;100582.34;;;8.94;100.00
39699;BME280;25372;50.582;12.250;2022-10-28T00:31:22;100578.72;;;8.95;100.00
39699;BME280;25372;50.582;12.250;2022-10-28T00:41:46;100574.38;;;9.12;100.00
39699;BME280;25372;50.582;12.250;2022-10-28T00:52:13;100576.09;;;9.55;100.00
39699;BME280;25372;50.582;12.250;2022-10-28T01:02:42;100562.03;;;9.55;100.00
39699;BME280;25372;50.582;12.250;2022-10-28T01:13:10;100561.47;;;9.86;100.00
39699;BME280;25372;50.582;12.250;2022-10-28T01:23:36;100556.03;;;9.95;100.00
39699;BME280;25372;50.582;12.250;2022-10-28T01:34:07;100550.56;;;9.89;100.00
39699;BME280;25372;50.582;12.250;2022-10-28T01:44:34;100554.03;;;9.89;100.00
39699;BME280;25372;50.582;12.250;2022-10-28T01:55:02;100545.16;;;10.07;100.00
39699;BME280;25372;50.582;12.250;2022-10-28T02:05:37;100549.47;;;10.08;100.00
39699;BME280;25372;50.582;12.250;2022-10-28T02:16:05;100553.78;;;10.17;100.00
39699;BME280;25372;50.582;12.250;2022-10-28T02:26:34;100540.88;;;10.30;100.00
39699;BME280;25372;50.582;12.250;2022-10-28T02:37:01;100548.31;;;10.27;100.00
39699;BME280;25372;50.582;12.250;2022-10-28T02:47:25;100528.81;;;10.44;100.00
39699;BME280;25372;50.582;12.250;2022-10-28T02:57:50;100522.03;;;10.75;100.00
39699;BME280;25372;50.582;12.250;2022-10-28T03:08:12;100533.28;;;10.77;100.00
39699;BME280;25372;50.582;12.250;2022-10-28T03:18:34;100508.38;;;11.03;100.00
39699;BME280;25372;50.582;12.250;2022-10-28T03:28:55;100506.06;;;10.91;100.00
39699;BME280;25372;50.582;12.250;2022-10-28T03:39:17;100510.88;;;10.88;100.00
39699;BME280;25372;50.582;12.250;2022-10-28T03:49:38;100519.19;;;10.60;100.00
39699;BME280;25372;50.582;12.250;2022-10-28T04:00:00;100509.13;;;10.39;100.00
39699;BME280;25372;50.582;12.250;2022-10-28T04:10:31;100511.41;;;10.67;100.00
39699;BME280;25372;50.582;12.250;2022-10-28T04:20:53;100511.91;;;10.45;100.00
39699;BME280;25372;50.582;12.250;2022-10-28T04:31:14;100527.13;;;10.85;100.00
39699;BME280;25372;50.582;12.250;2022-10-28T04:41:37;100508.28;;;10.46;100.00
39699;BME280;25372;50.582;12.250;2022-10-28T04:51:58;100493.03;;;10.40;100.00
39699;BME280;25372;50.582;12.250;2022-10-28T05:02:22;100482.28;;;10.34;100.00
39699;BME280;25372;50.582;12.250;2022-10-28T05:12:44;100471.34;;;10.45;100.00
39699;BME280;25372;50.582;12.250;2022-10-28T05:23:06;100478.31;;;10.38;100.00
39699;BME280;25372;50.582;12.250;2022-10-28T05:33:28;100495.16;;;10.20;100.00
39699;BME280;25372;50.582;12.250;2022-10-28T05:43:51;100492.84;;;10.25;100.00
39699;BME280;25372;50.582;12.250;2022-10-28T05:54:12;100488.75;;;10.48;100.00
39699;BME280;25372;50.582;12.250;2022-10-28T06:04:34;100486.44;;;10.44;100.00
39699;BME280;25372;50.582;12.250;2022-10-28T06:14:55;100494.03;;;10.39;100.00
39699;BME280;25372;50.582;12.250;2022-10-28T06:25:19;100486.09;;;10.48;100.00
39699;BME280;25372;50.582;12.250;2022-10-28T06:35:40;100497.16;;;10.51;100.00
39699;BME280;25372;50.582;12.250;2022-10-28T06:46:03;100516.88;;;10.73;100.00
39699;BME280;25372;50.582;12.250;2022-10-28T06:56:24;100510.69;;;11.06;100.00
39699;BME280;25372;50.582;12.250;2022-10-28T07:06:46;100517.34;;;11.41;100.00
39699;BME280;25372;50.582;12.250;2022-10-28T07:17:07;100520.75;;;11.90;100.00
39699;BME280;25372;50.582;12.250;2022-10-28T07:27:30;100526.19;;;12.28;100.00
39699;BME280;25372;50.582;12.250;2022-10-28T07:37:51;100529.16;;;12.48;100.00
39699;BME280;25372;50.582;12.250;2022-10-28T07:48:13;100542.16;;;12.66;100.00
39699;BME280;25372;50.582;12.250;2022-10-28T07:58:35;100541.00;;;12.98;100.00
39699;BME280;25372;50.582;12.250;2022-10-28T08:08:57;100544.72;;;13.12;100.00
39699;BME280;25372;50.582;12.250;2022-10-28T08:19:18;100540.75;;;13.08;100.00
39699;BME280;25372;50.582;12.250;2022-10-28T08:29:41;100532.59;;;13.24;100.00
39699;BME280;25372;50.582;12.250;2022-10-28T08:40:02;100532.88;;;13.30;100.00
39699;BME280;25372;50.582;12.250;2022-10-28T08:50:25;100537.19;;;13.60;100.00
39699;BME280;25372;50.582;12.250;2022-10-28T09:00:52;100532.94;;;13.66;100.00
39699;BME280;25372;50.582;12.250;2022-10-28T09:11:46;100524.25;;;13.57;100.00
39699;BME280;25372;50.582;12.250;2022-10-28T09:22:20;100525.63;;;13.90;100.00
39699;BME280;25372;50.582;12.250;2022-10-28T09:32:46;100514.72;;;14.28;100.00
39699;BME280;25372;50.582;12.250;2022-10-28T09:43:20;100473.94;;;15.26;92.33
39699;BME280;25372;50.582;12.250;2022-10-28T09:53:47;100503.16;;;15.96;90.15
39699;BME280;25372;50.582;12.250;2022-10-28T10:04:16;100452.09;;;15.57;90.25
39699;BME280;25372;50.582;12.250;2022-10-28T10:14:41;100480.06;;;15.20;91.81
39699;BME280;25372;50.582;12.250;2022-10-28T10:25:21;100466.66;;;15.06;93.77
39699;BME280;25372;50.582;12.250;2022-10-28T10:35:52;100448.63;;;15.15;92.44
39699;BME280;25372;50.582;12.250;2022-10-28T10:46:15;100436.25;;;15.56;91.50
39699;BME280;25372;50.582;12.250;2022-10-28T10:56:38;100411.25;;;15.83;90.10
39699;BME280;25372;50.582;12.250;2022-10-28T11:06:59;100407.97;;;16.08;88.27
39699;BME280;25372;50.582;12.250;2022-10-28T11:17:24;100397.88;;;15.97;89.05
39699;BME280;25372;50.582;12.250;2022-10-28T11:27:51;100373.34;;;16.60;85.77
39699;BME280;25372;50.582;12.250;2022-10-28T11:38:41;100358.44;;;17.30;83.64
39699;BME280;25372;50.582;12.250;2022-10-28T12:00:13;100345.88;;;17.87;79.17
39699;BME280;25372;50.582;12.250;2022-10-28T12:10:50;100354.72;;;17.63;78.71
39699;BME280;25372;50.582;12.250;2022-10-28T12:21:21;100334.66;;;17.08;81.04
39699;BME280;25372;50.582;12.250;2022-10-28T12:31:46;100318.97;;;16.66;84.16
39699;BME280;25372;50.582;12.250;2022-10-28T12:42:13;100323.66;;;16.78;84.16
39699;BME280;25372;50.582;12.250;2022-10-28T12:52:40;100315.84;;;16.76;83.36
39699;BME280;25372;50.582;12.250;2022-10-28T13:03:06;100314.84;;;16.64;83.97
39699;BME280;25372;50.582;12.250;2022-10-28T13:13:38;100312.81;;;16.59;84.63
39699;BME280;25372;50.582;12.250;2022-10-28T13:24:08;100318.56;;;16.63;83.87
39699;BME280;25372;50.582;12.250;2022-10-28T13:34:36;100297.34;;;16.68;83.58
39699;BME280;25372;50.582;12.250;2022-10-28T13:45:00;100306.25;;;17.07;82.55
39699;BME280;25372;50.582;12.250;2022-10-28T13:55:24;100312.63;;;16.54;83.48
39699;BME280;25372;50.582;12.250;2022-10-28T14:05:53;100316.03;;;16.09;85.54
39699;BME280;25372;50.582;12.250;2022-10-28T14:16:24;100315.03;;;15.90;85.64
39699;BME280;25372;50.582;12.250;2022-10-28T14:38:28;100322.47;;;14.99;90.10
39699;BME280;25372;50.582;12.250;2022-10-28T14:49:02;100314.41;;;14.73;90.84
39699;BME280;25372;50.582;12.250;2022-10-28T14:59:26;100299.25;;;14.45;92.24
39699;BME280;25372;50.582;12.250;2022-10-28T15:09:51;100308.28;;;14.44;91.99
39699;BME280;25372;50.582;12.250;2022-10-28T15:20:20;100292.34;;;14.22;93.47
39699;BME280;25372;50.582;12.250;2022-10-28T15:30:42;100314.91;;;14.20;93.56
39699;BME280;25372;50.582;12.250;2022-10-28T15:41:39;100303.94;;;14.01;93.96
39699;BME280;25372;50.582;12.250;2022-10-28T15:52:31;100308.66;;;14.06;93.91
39699;BME280;25372;50.582;12.250;2022-10-28T16:02:59;100287.78;;;13.81;95.49
39699;BME280;25372;50.582;12.250;2022-10-28T16:13:23;100300.50;;;13.79;96.57
39699;BME280;25372;50.582;12.250;2022-10-28T16:23:49;100291.44;;;13.73;96.48
39699;BME280;25372;50.582;12.250;2022-10-28T16:34:12;100294.50;;;13.70;96.38
39699;BME280;25372;50.582;12.250;2022-10-28T16:44:35;100311.22;;;13.64;97.22
39699;BME280;25372;50.582;12.250;2022-10-28T16:54:57;100301.66;;;13.48;97.90
39699;BME280;25372;50.582;12.250;2022-10-28T17:05:21;100319.78;;;13.38;99.01
39699;BME280;25372;50.582;12.250;2022-10-28T17:15:43;100309.38;;;13.21;100.00
39699;BME280;25372;50.582;12.250;2022-10-28T17:26:05;100314.38;;;13.10;100.00
39699;BME280;25372;50.582;12.250;2022-10-28T17:36:26;100325.81;;;13.10;100.00
39699;BME280;25372;50.582;12.250;2022-10-28T17:46:49;100326.06;;;12.94;100.00
39699;BME280;25372;50.582;12.250;2022-10-28T17:57:10;100325.44;;;12.77;100.00
39699;BME280;25372;50.582;12.250;2022-10-28T18:07:32;100319.03;;;12.56;100.00
39699;BME280;25372;50.582;12.250;2022-10-28T18:17:53;100316.31;;;12.64;100.00
39699;BME280;25372;50.582;12.250;2022-10-28T18:28:15;100315.56;;;12.70;100.00
39699;BME280;25372;50.582;12.250;2022-10-28T18:38:41;100305.09;;;12.69;100.00
39699;BME280;25372;50.582;12.250;2022-10-28T18:49:04;100306.22;;;12.60;100.00
39699;BME280;25372;50.582;12.250;2022-10-28T18:59:25;100290.72;;;12.48;100.00
39699;BME280;25372;50.582;12.250;2022-10-28T19:09:47;100297.22;;;12.61;100.00
39699;BME280;25372;50.582;12.250;2022-10-28T19:20:09;100296.84;;;12.79;100.00
39699;BME280;25372;50.582;12.250;2022-10-28T19:30:32;100296.31;;;12.53;100.00
39699;BME280;25372;50.582;12.250;2022-10-28T19:41:00;100288.81;;;12.42;100.00
39699;BME280;25372;50.582;12.250;2022-10-28T19:51:24;100318.03;;;12.27;100.00
39699;BME280;25372;50.582;12.250;2022-10-28T20:01:45;100315.03;;;11.92;100.00
39699;BME280;25372;50.582;12.250;2022-10-28T20:12:09;100323.78;;;11.63;100.00
39699;BME280;25372;50.582;12.250;2022-10-28T20:22:30;100324.94;;;11.60;100.00
39699;BME280;25372;50.582;12.250;2022-10-28T20:32:53;100335.91;;;11.57;100.00
39699;BME280;25372;50.582;12.250;2022-10-28T20:43:15;100343.50;;;12.07;100.00
39699;BME280;25372;50.582;12.250;2022-10-28T20:53:38;100351.19;;;12.01;100.00
39699;BME280;25372;50.582;12.250;2022-10-28T21:04:01;100345.41;;;11.75;100.00
39699;BME280;25372;50.582;12.250;2022-10-28T21:14:23;100362.38;;;11.74;100.00
39699;BME280;25372;50.582;12.250;2022-10-28T21:24:44;100358.84;;;11.27;100.00
39699;BME280;25372;50.582;12.250;2022-10-28T21:35:07;100360.09;;;11.16;100.00
39699;BME280;25372;50.582;12.250;2022-10-28T21:45:28;100368.78;;;11.02;100.00
39699;BME280;25372;50.582;12.250;2022-10-28T21:55:51;100362.38;;;10.88;100.00
39699;BME280;25372;50.582;12.250;2022-10-28T22:06:12;100366.31;;;10.92;100.00
39699;BME280;25372;50.582;12.250;2022-10-28T22:16:36;100383.19;;;10.68;100.00
39699;BME280;25372;50.582;12.250;2022-10-28T22:26:57;100368.50;;;10.40;100.00
39699;BME280;25372;50.582;12.250;2022-10-28T22:37:19;100376.13;;;10.35;100.00
39699;BME280;25372;50.582;12.250;2022-10-28T22:47:40;100388.69;;;10.33;100.00
39699;BME280;25372;50.582;12.250;2022-10-28T22:58:03;100391.69;;;10.22;100.00
39699;BME280;25372;50.582;12.250;2022-10-28T23:08:24;100377.47;;;9.98;100.00
39699;BME280;25372;50.582;12.250;2022-10-28T23:18:46;100380.09;;;10.15;100.00
39699;BME280;25372;50.582;12.250;2022-10-28T23:29:07;100401.63;;;10.11;100.00
39699;BME280;25372;50.582;12.250;2022-10-28T23:39:29;100392.88;;;10.11;100.00
39699;BME280;25372;50.582;12.250;2022-10-28T23:49:50;100394.53;;;10.12;100.00
